Time;durP1;ratioP1;P1;durP2;ratioP2;P2;SDS_P1;SDS_P2;PMS_P1;PMS_P2;Temp;Humidity;BMP_temperature;BMP_pressure;BME280_temperature;BME280_humidity;BME280_pressure;Samples;Min_cycle;Max_cycle;Signal;HPM_P1;HPM_P2
2022/03/20 00:01:04;;;;;;;5.90;2.97;;;;;;;5.22;nan;103283.97;5050481;28;20078;-59
2022/03/20 00:03:31;;;;;;;7.77;3.90;;;;;;;5.17;nan;103280.97;5049823;28;20444;-57
2022/03/20 00:05:57;;;;;;;7.27;3.90;;;;;;;5.17;nan;103270.69;5050287;28;20024;-59
2022/03/20 00:08:23;;;;;;;7.47;3.90;;;;;;;5.17;nan;103268.13;5050199;28;20032;-59
2022/03/20 00:10:51;;;;;;;6.97;3.50;;;;;;;5.15;nan;103267.06;5050012;28;20044;-59
2022/03/20 00:13:21;;;;;;;8.13;4.23;;;;;;;5.13;nan;103264.38;5050090;28;20041;-60
2022/03/20 00:15:49;;;;;;;7.28;4.30;;;;;;;5.12;nan;103262.56;5050353;28;20029;-58
2022/03/20 00:18:16;;;;;;;7.40;3.67;;;;;;;5.06;nan;103261.97;5050501;28;20029;-60
2022/03/20 00:20:46;;;;;;;5.83;3.83;;;;;;;5.07;nan;103255.19;5049927;28;20025;-58
2022/03/20 00:23:12;;;;;;;7.93;4.10;;;;;;;5.04;nan;103255.78;5049913;28;20037;-59
2022/03/20 00:25:42;;;;;;;6.30;4.50;;;;;;;5.01;nan;103252.94;5049521;28;20119;-58
2022/03/20 00:28:08;;;;;;;7.63;4.37;;;;;;;4.97;nan;103248.25;5050300;28;20063;-59
2022/03/20 00:30:35;;;;;;;9.37;4.73;;;;;;;4.95;nan;103239.53;5050519;28;20083;-59
2022/03/20 00:33:00;;;;;;;8.83;4.17;;;;;;;4.93;nan;103231.66;5049811;28;20052;-57
2022/03/20 00:35:25;;;;;;;7.17;4.73;;;;;;;4.90;nan;103224.56;5048918;28;20041;-59
2022/03/20 00:37:51;;;;;;;6.27;4.43;;;;;;;4.86;nan;103226.69;5049748;28;20083;-59
2022/03/20 00:40:16;;;;;;;5.37;4.53;;;;;;;4.81;nan;103216.00;5049894;28;20449;-59
2022/03/20 00:42:41;;;;;;;5.50;4.67;;;;;;;4.77;nan;103217.38;5050407;28;20198;-59
2022/03/20 00:45:08;;;;;;;7.60;5.00;;;;;;;4.74;nan;103211.03;5031004;28;20078;-58
2022/03/20 00:47:33;;;;;;;9.27;5.27;;;;;;;4.68;nan;103202.00;5048977;28;20293;-58
2022/03/20 00:49:58;;;;;;;7.17;5.40;;;;;;;4.62;nan;103205.66;5049767;28;20029;-59
2022/03/20 00:52:24;;;;;;;10.33;5.60;;;;;;;4.57;nan;103202.63;5049745;28;20381;-57
2022/03/20 00:54:49;;;;;;;9.10;5.77;;;;;;;4.52;nan;103198.72;5049236;28;20240;-58
2022/03/20 00:57:15;;;;;;;7.57;5.60;;;;;;;4.50;nan;103208.88;5049490;28;20029;-59
2022/03/20 00:59:41;;;;;;;10.03;5.77;;;;;;;4.48;nan;103200.09;5048921;28;20467;-58
2022/03/20 01:02:07;;;;;;;9.17;6.60;;;;;;;4.44;nan;103198.03;5049417;28;20039;-59
2022/03/20 01:04:32;;;;;;;10.90;6.83;;;;;;;4.37;nan;103187.94;5048832;28;20104;-57
2022/03/20 01:07:00;;;;;;;9.37;6.60;;;;;;;4.31;nan;103183.09;5049224;28;20116;-59
2022/03/20 01:09:26;;;;;;;9.53;6.03;;;;;;;4.27;nan;103186.13;5049207;28;20456;-58
2022/03/20 01:11:52;;;;;;;10.17;6.60;;;;;;;4.23;nan;103178.91;5048931;28;20029;-59
2022/03/20 01:14:18;;;;;;;7.53;5.83;;;;;;;4.20;nan;103179.50;5049082;28;20091;-59
2022/03/20 01:16:44;;;;;;;10.37;6.90;;;;;;;4.16;nan;103177.41;5049236;28;20535;-59
2022/03/20 01:19:09;;;;;;;8.80;5.97;;;;;;;4.11;nan;103173.50;5048454;28;20095;-57
2022/03/20 01:21:34;;;;;;;9.37;6.13;;;;;;;4.06;nan;103173.97;5049128;28;20094;-59
2022/03/20 01:24:00;;;;;;;9.23;6.30;;;;;;;4.03;nan;103163.38;5048719;28;20055;-59
2022/03/20 01:26:25;;;;;;;10.90;6.53;;;;;;;4.02;nan;103166.72;5049022;28;20039;-59
2022/03/20 01:28:50;;;;;;;9.40;6.93;;;;;;;3.99;nan;103158.75;5048584;28;20029;-57
2022/03/20 01:31:16;;;;;;;10.37;6.83;;;;;;;3.95;nan;103156.63;5048807;28;20467;-58
2022/03/20 01:33:42;;;;;;;10.67;7.67;;;;;;;3.95;nan;103152.41;5049014;28;20020;-59
2022/03/20 01:36:07;;;;;;;10.30;7.20;;;;;;;3.93;nan;103147.88;5049084;28;20612;-58
2022/03/20 01:38:32;;;;;;;10.93;7.90;;;;;;;3.88;nan;103144.88;5048307;28;20075;-59
2022/03/20 01:41:02;;;;;;;12.43;8.40;;;;;;;3.88;nan;103138.84;5048325;28;20029;-59
2022/03/20 01:43:27;;;;;;;10.67;8.03;;;;;;;3.86;nan;103130.06;5048537;28;20549;-57
2022/03/20 01:45:52;;;;;;;10.83;8.87;;;;;;;3.83;nan;103120.44;5048493;28;20115;-58
2022/03/20 01:48:18;;;;;;;13.30;9.60;;;;;;;3.82;nan;103124.66;5047779;28;20036;-59
2022/03/20 01:50:44;;;;;;;13.53;9.97;;;;;;;3.82;nan;103116.97;5048422;28;20025;-59
2022/03/20 01:53:09;;;;;;;11.40;10.13;;;;;;;3.80;nan;103115.91;5048157;28;20388;-59
2022/03/20 01:55:35;;;;;;;13.13;10.03;;;;;;;3.79;nan;103114.09;5047543;28;20029;-60
2022/03/20 01:58:00;;;;;;;12.10;10.63;;;;;;;3.78;nan;103117.41;5048296;28;20385;-59
2022/03/20 02:00:27;;;;;;;13.63;11.60;;;;;;;3.75;nan;103104.31;5048166;28;20402;-58
2022/03/20 02:02:54;;;;;;;13.67;12.00;;;;;;;3.75;nan;103106.88;5048405;28;20416;-59
2022/03/20 02:05:19;;;;;;;13.23;11.93;;;;;;;3.72;nan;103102.31;5047400;28;20037;-59
2022/03/20 02:07:47;;;;;;;15.10;12.70;;;;;;;3.71;nan;103103.09;5048228;28;20431;-59
2022/03/20 02:10:13;;;;;;;13.97;12.37;;;;;;;3.69;nan;103096.00;5048126;28;20032;-57
2022/03/20 02:12:40;;;;;;;15.37;12.60;;;;;;;3.68;nan;103091.63;5048191;28;20108;-57
2022/03/20 02:15:09;;;;;;;15.90;13.83;;;;;;;3.65;nan;103086.22;5048154;28;20032;-59
2022/03/20 02:17:35;;;;;;;19.23;13.43;;;;;;;3.65;nan;103078.53;5047445;28;20163;-59
2022/03/20 02:20:04;;;;;;;14.60;12.67;;;;;;;3.63;nan;103077.47;5047998;28;20063;-57
2022/03/20 02:22:31;;;;;;;17.60;14.13;;;;;;;3.63;nan;103072.34;5047687;28;20032;-57
2022/03/20 02:24:56;;;;;;;18.60;14.40;;;;;;;3.60;nan;103068.72;5048036;28;20017;-59
2022/03/20 02:27:27;;;;;;;18.83;14.40;;;;;;;3.58;nan;103070.22;5047646;28;20239;-59
2022/03/20 02:29:52;;;;;;;17.73;13.88;;;;;;;3.55;nan;103063.91;5046896;28;20060;-59
2022/03/20 02:32:23;;;;;;;17.17;15.03;;;;;;;3.54;nan;103060.44;5048107;28;20032;-59
2022/03/20 02:34:49;;;;;;;17.40;14.05;;;;;;;3.54;nan;103063.00;5048264;28;20020;-60
2022/03/20 02:37:17;;;;;;;16.60;14.80;;;;;;;3.52;nan;103051.69;5048691;28;20039;-58
2022/03/20 02:39:43;;;;;;;17.00;15.20;;;;;;;3.52;nan;103058.47;5047849;28;20059;-59
2022/03/20 02:42:08;;;;;;;17.27;15.03;;;;;;;3.46;nan;103054.56;5047632;28;20025;-59
2022/03/20 02:44:54;;;;;;;17.50;14.77;;;;;;;3.44;nan;103052.59;5047664;28;20017;-58
2022/03/20 02:47:25;;;;;;;17.53;14.33;;;;;;;3.45;nan;103036.47;5047631;28;20028;-60
2022/03/20 02:49:56;;;;;;;16.95;14.13;;;;;;;3.44;nan;103045.81;5047597;28;20117;-60
2022/03/20 02:52:28;;;;;;;20.98;15.82;;;;;;;3.44;nan;103033.00;5047926;28;20025;-60
2022/03/20 02:54:54;;;;;;;18.40;15.20;;;;;;;3.45;nan;103033.91;5047405;28;20348;-60
2022/03/20 02:57:19;;;;;;;16.90;14.93;;;;;;;3.42;nan;103031.94;5047388;28;20420;-59
2022/03/20 02:59:45;;;;;;;17.40;14.97;;;;;;;3.42;nan;103038.75;5046909;28;20060;-60
2022/03/20 03:02:10;;;;;;;19.90;15.77;;;;;;;3.39;nan;103039.34;5047486;28;20043;-60
2022/03/20 03:04:41;;;;;;;17.47;14.57;;;;;;;3.40;nan;103035.13;5047799;28;20029;-60
2022/03/20 03:07:07;;;;;;;16.90;14.80;;;;;;;3.36;nan;103026.25;5049208;28;20029;-60
2022/03/20 03:12:16;;;;;;;22.63;16.40;;;;;;;3.30;nan;103018.84;5051768;28;20103;-60
2022/03/20 03:17:28;;;;;;;18.37;16.17;;;;;;;3.28;nan;103014.31;5051407;28;20040;-58
2022/03/20 03:19:55;;;;;;;20.67;16.40;;;;;;;3.25;nan;103014.94;5051496;28;20108;-59
2022/03/20 03:22:20;;;;;;;18.80;16.73;;;;;;;3.23;nan;103013.88;5050838;28;20041;-60
2022/03/20 03:24:46;;;;;;;19.67;17.57;;;;;;;3.22;nan;103009.53;5051345;28;20025;-59
2022/03/20 03:27:11;;;;;;;22.33;17.73;;;;;;;3.20;nan;103003.34;5051467;28;20032;-57
2022/03/20 03:29:37;;;;;;;22.70;17.33;;;;;;;3.19;nan;102993.84;5050754;28;20043;-59
2022/03/20 03:32:02;;;;;;;18.93;16.97;;;;;;;3.15;nan;102986.63;5050719;28;20025;-57
2022/03/20 03:37:11;;;;;;;21.30;18.17;;;;;;;3.09;nan;102989.50;5051814;28;20060;-56
2022/03/20 03:39:36;;;;;;;21.20;18.40;;;;;;;3.04;nan;102980.47;5051164;28;20029;-59
2022/03/20 03:42:03;;;;;;;21.20;18.70;;;;;;;3.01;nan;102975.94;5050507;28;20047;-58
2022/03/20 03:44:28;;;;;;;23.30;18.60;;;;;;;3.01;nan;102970.81;5061786;28;20067;-59
2022/03/20 03:46:57;;;;;;;23.70;18.63;;;;;;;2.99;nan;102969.75;5070806;28;20461;-57
2022/03/20 03:49:23;;;;;;;21.33;18.20;;;;;;;2.97;nan;102966.13;5071043;28;20043;-59
2022/03/20 03:51:48;;;;;;;23.27;18.40;;;;;;;2.94;nan;102968.41;5070572;28;20032;-59
2022/03/20 03:54:13;;;;;;;22.57;19.17;;;;;;;2.92;nan;102963.13;5070459;28;20036;-58
2022/03/20 03:56:39;;;;;;;22.00;18.27;;;;;;;2.87;nan;102960.13;5071101;28;20031;-57
2022/03/20 03:59:05;;;;;;;23.73;18.63;;;;;;;2.86;nan;102949.75;5070485;28;20168;-57
2022/03/20 04:01:30;;;;;;;23.70;18.90;;;;;;;2.80;nan;102947.47;5070762;28;20125;-58
2022/03/20 04:03:56;;;;;;;22.97;18.40;;;;;;;2.78;nan;102953.19;5070429;28;20036;-58
2022/03/20 04:06:21;;;;;;;21.77;18.43;;;;;;;2.75;nan;102949.56;5070726;28;20032;-59
2022/03/20 04:08:46;;;;;;;22.10;18.77;;;;;;;2.71;nan;102951.69;5070293;28;20115;-57
2022/03/20 04:11:12;;;;;;;23.27;18.60;;;;;;;2.70;nan;102949.91;5070906;28;20107;-59
2022/03/20 04:13:37;;;;;;;22.23;18.60;;;;;;;2.66;nan;102937.53;5070409;28;20028;-59
2022/03/20 04:16:05;;;;;;;25.93;19.27;;;;;;;2.61;nan;102945.66;5070404;28;20126;-59
2022/03/20 04:18:31;;;;;;;21.40;19.10;;;;;;;2.53;nan;102941.44;5070112;28;20029;-59
2022/03/20 04:20:56;;;;;;;21.57;18.80;;;;;;;2.50;nan;102930.91;5070286;28;20013;-59
2022/03/20 04:23:45;;;;;;;22.23;19.63;;;;;;;2.46;nan;102924.59;5069750;28;20287;-57
2022/03/20 04:26:07;;;;;;;21.83;19.27;;;;;;;2.40;nan;102919.75;5069393;28;20047;-57
2022/03/20 04:28:32;;;;;;;23.93;19.83;;;;;;;2.35;nan;102910.72;5069864;28;20396;-59
2022/03/20 04:30:57;;;;;;;22.53;19.07;;;;;;;2.33;nan;102902.00;5069722;28;20024;-59
2022/03/20 04:33:24;;;;;;;23.10;20.23;;;;;;;2.31;nan;102898.38;5069874;28;20555;-56
2022/03/20 04:35:50;;;;;;;24.13;20.23;;;;;;;2.30;nan;102891.47;5069918;28;20036;-58
2022/03/20 04:38:15;;;;;;;23.60;19.27;;;;;;;2.25;nan;102896.09;5070135;28;20029;-58
2022/03/20 04:40:40;;;;;;;23.77;20.80;;;;;;;2.21;nan;102903.34;5069501;28;20025;-60
2022/03/20 04:43:06;;;;;;;24.40;18.80;;;;;;;2.18;nan;102901.34;5069899;28;20389;-58
2022/03/20 04:45:31;;;;;;;23.40;19.20;;;;;;;2.18;nan;102895.34;5070074;28;20016;-60
2022/03/20 04:58:52;;;;;;;25.97;20.47;;;;;;;2.15;nan;102880.59;5069785;28;20083;-59
2022/03/20 05:01:17;;;;;;;24.00;19.90;;;;;;;2.12;nan;102870.94;5069325;28;20036;-60
2022/03/20 05:03:43;;;;;;;26.80;21.13;;;;;;;2.11;nan;102858.91;5069902;28;20376;-59
2022/03/20 05:06:08;;;;;;;24.13;20.60;;;;;;;2.11;nan;102853.81;5069768;28;20067;-60
2022/03/20 05:08:37;;;;;;;23.83;20.70;;;;;;;2.07;nan;102855.91;5069073;28;20035;-58
2022/03/20 05:13:47;;;;;;;24.17;20.03;;;;;;;2.03;nan;102858.16;5069248;28;20074;-60
2022/03/20 05:16:12;;;;;;;21.53;19.23;;;;;;;2.00;nan;102859.50;5069208;28;20033;-58
2022/03/20 05:18:37;;;;;;;21.53;19.20;;;;;;;1.97;nan;102848.97;5069198;28;20078;-59
2022/03/20 05:21:02;;;;;;;23.27;20.77;;;;;;;1.96;nan;102853.16;5068647;28;20029;-60
2022/03/20 05:23:28;;;;;;;23.57;19.37;;;;;;;1.95;nan;102853.03;5069433;28;20514;-60
2022/03/20 05:25:53;;;;;;;23.47;19.43;;;;;;;1.96;nan;102847.19;5068737;28;20036;-58
2022/03/20 05:28:18;;;;;;;22.93;19.13;;;;;;;1.95;nan;102848.81;5069031;28;20038;-60
2022/03/20 05:30:44;;;;;;;21.90;19.57;;;;;;;1.95;nan;102850.47;5066818;28;20473;-59
2022/03/20 05:33:10;;;;;;;26.73;19.67;;;;;;;1.92;nan;102841.72;5066417;28;20469;-58
2022/03/20 05:35:37;;;;;;;22.77;19.67;;;;;;;1.90;nan;102845.81;5066548;28;20074;-59
2022/03/20 05:38:03;;;;;;;21.73;19.43;;;;;;;1.87;nan;102845.47;5066222;28;20043;-58
2022/03/20 05:40:29;;;;;;;26.23;19.13;;;;;;;1.86;nan;102843.69;5067015;28;20107;-61
2022/03/20 05:42:54;;;;;;;22.60;19.57;;;;;;;1.82;nan;102833.91;5066424;28;20028;-58
2022/03/20 05:45:20;;;;;;;22.17;19.13;;;;;;;1.83;nan;102838.28;5068600;28;20881;-60
2022/03/20 05:47:45;;;;;;;22.67;19.50;;;;;;;1.84;nan;102831.50;5068658;28;20048;-58
2022/03/20 05:50:10;;;;;;;22.00;19.23;;;;;;;1.84;nan;102826.38;5068555;28;20044;-59
2022/03/20 05:52:36;;;;;;;22.03;18.33;;;;;;;1.85;nan;102818.88;5068238;28;20039;-60
2022/03/20 05:55:02;;;;;;;25.20;19.80;;;;;;;1.86;nan;102818.13;5067791;28;20056;-59
2022/03/20 06:00:26;;;;;;;23.93;17.70;;;;;;;1.86;nan;102825.78;5068112;28;20094;-59
2022/03/20 06:02:52;;;;;;;20.20;16.87;;;;;;;1.87;nan;102822.47;5068521;28;20035;-58
2022/03/20 06:05:18;;;;;;;23.97;19.40;;;;;;;1.88;nan;102824.28;5068321;28;20411;-60
2022/03/20 06:07:46;;;;;;;23.30;19.20;;;;;;;1.92;nan;102831.50;5067915;28;20024;-60
2022/03/20 06:10:16;;;;;;;21.30;18.07;;;;;;;1.95;nan;102820.69;5053417;28;20061;-59
2022/03/20 06:12:42;;;;;;;20.80;17.63;;;;;;;1.97;nan;102818.28;5045889;28;20336;-59
2022/03/20 06:15:08;;;;;;;20.33;17.63;;;;;;;2.00;nan;102819.47;5048151;28;20074;-58
2022/03/20 06:17:44;;;;;;;22.50;17.10;;;;;;;2.05;nan;102817.41;5047390;28;20481;-59
2022/03/20 06:20:11;;;;;;;21.40;17.00;;;;;;;2.07;nan;102821.00;5049849;28;20425;-60
2022/03/20 06:22:37;;;;;;;19.03;16.90;;;;;;;2.11;nan;102811.97;5046793;28;20021;-60
2022/03/20 06:25:04;;;;;;;21.37;16.87;;;;;;;2.15;nan;102814.06;5046151;28;20165;-59
2022/03/20 06:27:40;;;;;;;22.13;16.67;;;;;;;2.18;nan;102805.81;5046930;28;20064;-59
2022/03/20 06:30:06;;;;;;;21.10;17.50;;;;;;;2.23;nan;102812.28;5046561;28;20032;-60
2022/03/20 06:32:31;;;;;;;21.50;16.97;;;;;;;2.27;nan;102810.16;5046927;28;20029;-59
2022/03/20 06:34:56;;;;;;;19.70;16.53;;;;;;;2.32;nan;102818.28;5046345;28;20029;-59
2022/03/20 06:37:22;;;;;;;21.77;17.47;;;;;;;2.36;nan;102810.16;5046755;28;20107;-57
2022/03/20 06:39:47;;;;;;;18.13;16.20;;;;;;;2.41;nan;102815.75;5046576;28;20040;-59
2022/03/20 06:42:13;;;;;;;23.50;16.97;;;;;;;2.46;nan;102809.41;5046770;28;20665;-60
2022/03/20 06:44:39;;;;;;;21.03;17.17;;;;;;;2.50;nan;102802.94;5046808;28;20029;-60
2022/03/20 06:47:04;;;;;;;19.90;16.93;;;;;;;2.54;nan;102805.00;5046166;28;20098;-60
2022/03/20 06:49:30;;;;;;;21.00;16.50;;;;;;;2.58;nan;102789.19;5046521;28;20071;-60
2022/03/20 06:51:55;;;;;;;20.37;15.57;;;;;;;2.66;nan;102799.28;5046448;28;20064;-58
2022/03/20 06:54:20;;;;;;;18.23;15.83;;;;;;;2.68;nan;102788.41;5046848;28;20452;-59
2022/03/20 06:56:45;;;;;;;19.57;16.10;;;;;;;2.73;nan;102783.75;5046544;28;20021;-59
2022/03/20 06:59:14;;;;;;;18.50;15.93;;;;;;;2.75;nan;102783.13;5049041;28;20033;-59
2022/03/20 07:01:39;;;;;;;19.43;16.57;;;;;;;2.78;nan;102785.09;5046922;28;20078;-59
2022/03/20 07:04:05;;;;;;;20.10;16.43;;;;;;;2.81;nan;102781.91;5047557;28;20029;-59
2022/03/20 07:06:30;;;;;;;20.40;16.30;;;;;;;2.84;nan;102785.66;5047949;28;20292;-60
2022/03/20 07:08:59;;;;;;;17.33;15.30;;;;;;;2.87;nan;102785.06;5047737;28;20044;-56
2022/03/20 07:11:32;;;;;;;22.20;17.17;;;;;;;2.88;nan;102777.50;5046781;28;20025;-58
2022/03/20 07:13:58;;;;;;;17.87;15.33;;;;;;;2.93;nan;102777.06;5047083;28;20116;-60
2022/03/20 07:16:29;;;;;;;19.90;15.70;;;;;;;2.97;nan;102768.88;5047254;28;20455;-57
2022/03/20 07:18:55;;;;;;;18.45;14.85;;;;;;;3.00;nan;102774.31;5046631;28;20139;-59
2022/03/20 07:21:21;;;;;;;19.43;16.03;;;;;;;3.03;nan;102761.78;5047451;28;20096;-60
2022/03/20 07:23:46;;;;;;;18.13;15.53;;;;;;;3.06;nan;102751.81;5046661;28;20113;-59
2022/03/20 07:31:39;;;;;;;19.80;15.23;;;;;;;3.15;nan;102738.09;5045679;28;20522;-59
2022/03/20 07:34:05;;;;;;;20.67;16.50;;;;;;;3.17;nan;102741.66;5045407;28;20029;-57
2022/03/20 07:36:30;;;;;;;16.87;14.87;;;;;;;3.20;nan;102730.03;5046005;28;20237;-58
2022/03/20 07:38:55;;;;;;;18.83;15.60;;;;;;;3.22;nan;102732.78;5046293;28;20037;-60
2022/03/20 07:41:21;;;;;;;21.70;15.13;;;;;;;3.21;nan;102736.97;5047168;28;20033;-59
2022/03/20 07:43:47;;;;;;;19.20;15.23;;;;;;;3.24;nan;102746.59;5046928;28;20036;-58
2022/03/20 07:46:12;;;;;;;16.63;14.83;;;;;;;3.24;nan;102736.34;5046207;28;20025;-59
2022/03/20 07:48:38;;;;;;;20.03;14.83;;;;;;;3.24;nan;102736.34;5047263;28;20511;-58
2022/03/20 07:51:04;;;;;;;18.03;14.83;;;;;;;3.23;nan;102729.44;5049303;28;20401;-59
2022/03/20 07:53:29;;;;;;;16.90;15.00;;;;;;;3.26;nan;102736.53;5048742;28;20036;-59
2022/03/20 07:55:54;;;;;;;18.80;14.53;;;;;;;3.28;nan;102735.88;5053693;28;20040;-59
2022/03/20 07:58:20;;;;;;;16.73;15.03;;;;;;;3.29;nan;102737.66;5050368;28;20041;-58
2022/03/20 08:00:46;;;;;;;18.20;15.27;;;;;;;3.31;nan;102736.16;5052745;28;20040;-59
2022/03/20 08:03:12;;;;;;;18.00;14.17;;;;;;;3.32;nan;102727.72;5049799;28;20099;-59
2022/03/20 08:05:39;;;;;;;18.73;15.47;;;;;;;3.30;nan;102736.94;5053169;28;20051;-57
2022/03/20 08:08:05;;;;;;;16.70;14.63;;;;;;;3.30;nan;102738.59;5049687;28;20016;-59
2022/03/20 08:10:30;;;;;;;16.87;14.60;;;;;;;3.29;nan;102719.72;5051866;28;20098;-59
2022/03/20 08:12:56;;;;;;;18.47;14.70;;;;;;;3.30;nan;102724.13;5050363;28;20063;-60
2022/03/20 08:15:21;;;;;;;19.53;14.40;;;;;;;3.32;nan;102712.34;5050356;28;20031;-57
2022/03/20 08:17:50;;;;;;;21.53;15.13;;;;;;;3.32;nan;102730.28;5050747;28;20028;-58
2022/03/20 08:20:15;;;;;;;18.07;14.37;;;;;;;3.35;nan;102715.19;5049897;28;20377;-59
2022/03/20 08:22:41;;;;;;;20.07;14.83;;;;;;;3.36;nan;102714.41;5052704;28;21266;-57
2022/03/20 08:25:07;;;;;;;18.23;13.97;;;;;;;3.38;nan;102709.44;5050074;28;20028;-59
2022/03/20 08:27:46;;;;;;;18.53;15.47;;;;;;;3.42;nan;102700.38;5050806;28;20412;-57
2022/03/20 08:30:17;;;;;;;18.80;14.83;;;;;;;3.42;nan;102697.81;5050352;28;20492;-60
2022/03/20 08:32:43;;;;;;;19.33;14.90;;;;;;;3.43;nan;102697.94;5050187;28;20468;-59
2022/03/20 08:35:13;;;;;;;19.20;15.63;;;;;;;3.45;nan;102698.97;5050441;28;20282;-60
2022/03/20 08:37:39;;;;;;;19.02;16.05;;;;;;;3.48;nan;102695.78;5048987;28;20024;-59
2022/03/20 08:40:04;;;;;;;20.43;15.73;;;;;;;3.49;nan;102689.91;5052476;28;20021;-59
2022/03/20 08:42:30;;;;;;;20.47;15.80;;;;;;;3.50;nan;102691.72;5049058;28;20060;-59
2022/03/20 08:44:55;;;;;;;20.50;15.50;;;;;;;3.53;nan;102689.41;5049202;28;20476;-57
2022/03/20 08:47:20;;;;;;;17.97;14.57;;;;;;;3.53;nan;102697.13;5049738;28;20025;-59
2022/03/20 08:49:46;;;;;;;20.10;15.70;;;;;;;3.57;nan;102690.59;5048937;28;20020;-59
2022/03/20 08:52:11;;;;;;;18.03;15.47;;;;;;;3.58;nan;102703.56;5048849;28;20033;-59
2022/03/20 08:54:36;;;;;;;19.50;15.43;;;;;;;3.59;nan;102697.69;5049399;28;20009;-58
2022/03/20 08:57:05;;;;;;;17.10;14.90;;;;;;;3.60;nan;102707.16;5049500;28;20398;-58
2022/03/20 08:59:31;;;;;;;18.93;15.50;;;;;;;3.62;nan;102703.84;5048856;28;20036;-60
2022/03/20 09:01:56;;;;;;;19.43;15.97;;;;;;;3.62;nan;102708.97;5049016;28;20146;-59
2022/03/20 09:04:21;;;;;;;19.57;16.40;;;;;;;3.62;nan;102706.41;5047749;28;20025;-58
2022/03/20 09:06:47;;;;;;;19.30;16.43;;;;;;;3.60;nan;102702.03;5048888;28;20043;-59
2022/03/20 09:09:14;;;;;;;18.97;16.07;;;;;;;3.63;nan;102697.94;5049140;28;20037;-59
2022/03/20 09:11:41;;;;;;;19.63;15.93;;;;;;;3.65;nan;102702.44;5051937;28;20246;-59
2022/03/20 09:14:06;;;;;;;19.57;16.53;;;;;;;3.69;nan;102694.28;5049773;28;20024;-59
2022/03/20 09:19:17;;;;;;;23.60;18.00;;;;;;;3.87;nan;102685.53;5049595;28;20800;-58
2022/03/20 09:21:42;;;;;;;20.37;16.70;;;;;;;4.01;nan;102685.06;5051545;28;20078;-59
2022/03/20 09:24:08;;;;;;;17.93;15.13;;;;;;;4.20;nan;102671.31;5048356;28;20104;-58
2022/03/20 09:26:34;;;;;;;21.57;16.63;;;;;;;4.60;nan;102668.75;5048521;28;20187;-59
2022/03/20 09:28:59;;;;;;;19.17;16.30;;;;;;;5.09;nan;102657.38;5048524;28;20131;-59
2022/03/20 09:31:26;;;;;;;17.17;14.97;;;;;;;5.48;nan;102656.31;5048533;28;20106;-59
2022/03/20 09:33:52;;;;;;;17.60;15.70;;;;;;;5.86;nan;102654.16;5047930;28;20493;-59
2022/03/20 09:36:18;;;;;;;18.93;16.43;;;;;;;5.93;nan;102656.44;5051233;28;20408;-59
2022/03/20 09:38:43;;;;;;;20.37;16.63;;;;;;;5.91;nan;102657.06;5048137;28;20040;-58
2022/03/20 09:41:11;;;;;;;21.08;16.45;;;;;;;5.88;nan;102650.91;5047965;28;20028;-60
2022/03/20 09:43:39;;;;;;;19.25;17.02;;;;;;;5.87;nan;102625.06;5050369;28;20056;-57
2022/03/20 09:46:04;;;;;;;18.10;16.17;;;;;;;6.04;nan;102633.22;5047768;28;20036;-59
2022/03/20 09:48:30;;;;;;;18.60;16.63;;;;;;;6.15;nan;102629.88;5048115;28;20401;-57
2022/03/20 09:51:01;;;;;;;18.20;16.30;;;;;;;6.30;nan;102626.69;5050424;28;20199;-58
2022/03/20 09:53:28;;;;;;;20.70;17.63;;;;;;;6.36;nan;102628.09;5047928;28;20427;-59
2022/03/20 09:55:57;;;;;;;22.08;18.75;;;;;;;6.38;nan;102633.34;5047617;28;20078;-59
2022/03/20 09:58:24;;;;;;;20.63;18.48;;;;;;;6.39;nan;102636.81;5048248;28;20036;-59
2022/03/20 10:00:50;;;;;;;21.02;18.77;;;;;;;6.32;nan;102630.28;5047847;28;20420;-57
2022/03/20 10:03:17;;;;;;;23.30;18.83;;;;;;;6.22;nan;102631.25;5048123;28;20083;-60
2022/03/20 10:05:42;;;;;;;20.83;18.60;;;;;;;6.08;nan;102646.50;5047699;28;20075;-59
2022/03/20 10:08:10;;;;;;;21.40;18.63;;;;;;;6.05;nan;102642.72;5048300;28;20029;-59
2022/03/20 10:10:36;;;;;;;23.38;18.55;;;;;;;5.95;nan;102629.16;5048283;28;20381;-59
2022/03/20 10:13:01;;;;;;;23.98;19.75;;;;;;;5.92;nan;102634.03;5048148;28;20059;-59
2022/03/20 10:15:30;;;;;;;21.77;18.77;;;;;;;5.89;nan;102638.94;5047660;28;20037;-59
2022/03/20 10:18:18;;;;;;;22.33;18.92;;;;;;;5.86;nan;102649.88;5049752;28;20064;-59
2022/03/20 10:20:48;;;;;;;25.47;20.67;;;;;;;5.76;nan;102653.41;5047441;28;20049;-59
2022/03/20 10:23:46;;;;;;;29.07;23.53;;;;;;;5.22;nan;102673.03;5047586;28;20024;-58
2022/03/20 10:26:14;;;;;;;26.73;23.77;;;;;;;5.03;nan;102656.09;4992868;28;20528;-57
2022/03/20 10:28:48;;;;;;;29.42;25.35;;;;;;;4.74;nan;102662.22;5047507;28;20473;-59
2022/03/20 10:31:17;;;;;;;31.27;26.27;;;;;;;4.65;nan;102656.28;5029968;28;20040;-58
2022/03/20 10:33:46;;;;;;;27.57;24.60;;;;;;;4.60;nan;102662.69;5047822;28;20082;-59
2022/03/20 10:36:17;;;;;;;30.40;25.00;;;;;;;4.54;nan;102648.56;5048181;28;20075;-58
2022/03/20 10:38:47;;;;;;;;;;;;;;;4.53;nan;102657.03;5048015;28;20485;-59
2022/03/20 10:41:34;;;;;;;36.93;25.70;;;;;;;4.54;nan;102652.78;5048171;28;19913;-57
2022/03/20 10:44:00;;;;;;;31.13;26.27;;;;;;;4.54;nan;102656.28;5062532;28;20507;-59
2022/03/20 10:46:30;;;;;;;29.47;26.07;;;;;;;4.61;nan;102654.22;5061365;28;20021;-59
2022/03/20 10:49:02;;;;;;;30.08;26.90;;;;;;;4.59;nan;102648.94;5049670;28;20035;-57
2022/03/20 10:51:40;;;;;;;;;;;;;;;4.60;nan;102662.69;5047579;28;20111;-57
2022/03/20 10:54:20;;;;;;;29.90;26.20;;;;;;;4.57;nan;102656.53;5047979;28;20371;-59
2022/03/20 10:56:57;;;;;;;28.88;25.65;;;;;;;4.69;nan;102668.63;5048190;28;20067;-55
2022/03/20 10:59:24;;;;;;;30.23;26.93;;;;;;;4.62;nan;102672.34;5046517;28;20120;-58
2022/03/20 11:01:50;;;;;;;30.53;27.30;;;;;;;4.55;nan;102668.34;5047466;28;20040;-59
2022/03/20 11:04:17;;;;;;;31.50;27.13;;;;;;;4.49;nan;102662.69;5047647;28;20028;-56
2022/03/20 11:06:47;;;;;;;31.37;27.97;;;;;;;4.56;nan;102671.81;5047594;28;20087;-58
2022/03/20 11:09:13;;;;;;;31.30;27.63;;;;;;;4.54;nan;102663.97;5047643;28;20031;-58
2022/03/20 11:11:50;;;;;;;30.83;27.53;;;;;;;4.61;nan;102669.63;5046861;28;20032;-59
2022/03/20 11:14:18;;;;;;;34.77;28.37;;;;;;;4.57;nan;102671.94;5047830;28;20528;-57
2022/03/20 11:16:50;;;;;;;29.83;26.57;;;;;;;4.59;nan;102663.47;5047630;28;20029;-59
2022/03/20 11:19:20;;;;;;;30.67;27.47;;;;;;;4.52;nan;102665.50;5047411;28;20431;-58
2022/03/20 11:21:47;;;;;;;30.60;26.77;;;;;;;4.50;nan;102674.75;5047583;28;20033;-59
2022/03/20 11:24:16;;;;;;;32.10;28.00;;;;;;;4.53;nan;102675.00;5046386;28;20083;-58
2022/03/20 11:26:43;;;;;;;30.70;26.17;;;;;;;4.60;nan;102668.75;5047161;28;20111;-57
2022/03/20 11:29:12;;;;;;;32.10;27.33;;;;;;;4.67;nan;102680.44;5050605;28;20032;-59
2022/03/20 11:31:38;;;;;;;29.90;26.73;;;;;;;4.69;nan;102658.38;5049855;28;20392;-59
2022/03/20 11:34:06;;;;;;;29.73;26.63;;;;;;;4.67;nan;102665.03;5051307;28;20029;-57
2022/03/20 11:36:32;;;;;;;30.77;26.63;;;;;;;4.73;nan;102665.53;5042772;28;20032;-58
2022/03/20 11:39:13;;;;;;;31.40;28.00;;;;;;;4.77;nan;102647.06;5051057;28;20062;-57
2022/03/20 11:41:39;;;;;;;32.13;28.23;;;;;;;4.92;nan;102651.69;5051134;28;20033;-59
2022/03/20 11:44:10;;;;;;;29.57;26.27;;;;;;;4.96;nan;102653.78;5050322;28;20032;-58
2022/03/20 11:46:36;;;;;;;;;;;;;;;5.09;nan;102650.53;5051772;28;20021;-58
2022/03/20 11:49:20;;;;;;;31.00;26.40;;;;;;;5.22;nan;102647.31;5050832;28;19977;-58
2022/03/20 11:52:00;;;;;;;32.40;26.77;;;;;;;5.24;nan;102653.50;5050877;28;20381;-58
2022/03/20 11:54:52;;;;;;;32.90;26.27;;;;;;;5.31;nan;102651.44;5050310;28;20094;-58
2022/03/20 11:57:27;;;;;;;32.85;26.95;;;;;;;5.28;nan;102642.69;5049500;28;20029;-58
2022/03/20 11:59:56;;;;;;;32.27;28.10;;;;;;;5.35;nan;102651.81;5049290;28;20049;-58
2022/03/20 12:02:34;;;;;;;29.37;25.80;;;;;;;5.44;nan;102655.91;5051745;28;20127;-59
2022/03/20 12:05:08;;;;;;;29.75;26.17;;;;;;;5.51;nan;102646.25;5048874;28;20025;-59
2022/03/20 12:07:49;;;;;;;28.83;25.77;;;;;;;5.61;nan;102652.16;5048855;28;20123;-58
2022/03/20 12:10:36;;;;;;;30.33;25.35;;;;;;;5.65;nan;102649.03;5049485;28;20040;-57